createdAt,value
2023-05-09T00:00:38.217Z,13.20
2023-05-09T00:03:06.303Z,13.10
2023-05-09T00:05:33.835Z,13.00
2023-05-09T00:08:01.260Z,13.30
2023-05-09T00:10:28.744Z,12.90
2023-05-09T00:12:57.043Z,13.30
2023-05-09T00:15:25.721Z,13.20
2023-05-09T00:17:53.234Z,12.90
2023-05-09T00:20:20.862Z,12.70
2023-05-09T00:22:48.317Z,12.80
2023-05-09T00:25:16.021Z,12.70
2023-05-09T00:27:43.625Z,13.10
2023-05-09T00:30:11.307Z,12.90
2023-05-09T00:32:40.435Z,13.10
2023-05-09T00:35:10.192Z,12.70
2023-05-09T00:37:38.050Z,13.10
2023-05-09T00:40:07.599Z,12.80
2023-05-09T00:42:35.876Z,12.80
2023-05-09T00:45:03.583Z,12.80
2023-05-09T00:47:31.429Z,13.10
2023-05-09T00:49:59.668Z,13.10
2023-05-09T00:52:27.648Z,12.70
2023-05-09T00:54:56.519Z,12.70
2023-05-09T00:57:24.050Z,12.70
2023-05-09T00:59:51.709Z,12.80
2023-05-09T01:02:19.874Z,12.80
2023-05-09T01:04:47.651Z,12.90
2023-05-09T01:07:35.506Z,12.80
2023-05-09T01:10:15.347Z,13.10
2023-05-09T01:13:06.525Z,13.20
2023-05-09T01:15:39.545Z,13.20
2023-05-09T01:18:13.435Z,12.80
2023-05-09T01:20:52.194Z,13.10
2023-05-09T01:23:30.283Z,12.80
2023-05-09T01:26:19.142Z,12.80
2023-05-09T01:29:24.164Z,12.90
2023-05-09T01:31:53.468Z,13.20
2023-05-09T01:34:26.460Z,13.20
2023-05-09T01:36:58.154Z,13.20
2023-05-09T01:39:28.389Z,13.20
2023-05-09T01:41:57.925Z,13.30
2023-05-09T01:44:28.514Z,12.80
2023-05-09T01:46:56.279Z,12.90
2023-05-09T01:49:25.255Z,12.70
2023-05-09T01:51:54.148Z,12.70
2023-05-09T01:54:26.242Z,13.00
2023-05-09T01:56:55.650Z,13.00
2023-05-09T01:59:23.852Z,12.60
2023-05-09T02:01:52.625Z,12.90
2023-05-09T02:04:20.918Z,12.80
2023-05-09T02:06:51.461Z,12.90
2023-05-09T02:09:20.344Z,13.00
2023-05-09T02:11:47.882Z,12.90
2023-05-09T02:14:15.854Z,13.00
2023-05-09T02:16:43.490Z,13.00
2023-05-09T02:19:11.285Z,12.90
2023-05-09T02:21:38.890Z,12.60
2023-05-09T02:24:06.742Z,12.90
2023-05-09T02:26:36.382Z,12.90
2023-05-09T02:29:07.188Z,12.50
2023-05-09T02:31:36.187Z,12.50
2023-05-09T02:34:05.579Z,13.00
2023-05-09T02:36:35.724Z,12.50
2023-05-09T02:39:03.641Z,12.60
2023-05-09T02:41:31.108Z,12.70
2023-05-09T02:43:58.605Z,12.50
2023-05-09T02:46:26.434Z,12.40
2023-05-09T02:48:54.264Z,12.40
2023-05-09T02:51:21.751Z,12.40
2023-05-09T02:53:49.287Z,12.50
2023-05-09T02:56:16.935Z,12.30
2023-05-09T02:58:50.988Z,12.70
2023-05-09T03:01:18.603Z,12.60
2023-05-09T03:03:46.798Z,12.70
2023-05-09T03:06:15.245Z,12.70
2023-05-09T03:08:42.645Z,12.30
2023-05-09T03:11:11.166Z,12.30
2023-05-09T03:13:38.720Z,12.20
2023-05-09T03:16:06.803Z,12.70
2023-05-09T03:18:34.265Z,12.70
2023-05-09T03:21:02.287Z,12.50
2023-05-09T03:23:30.515Z,12.20
2023-05-09T03:25:58.022Z,12.70
2023-05-09T03:28:25.428Z,12.20
2023-05-09T03:30:53.046Z,12.70
2023-05-09T03:33:23.789Z,12.20
2023-05-09T03:35:51.654Z,12.40
2023-05-09T03:38:19.345Z,12.30
2023-05-09T03:40:46.812Z,12.70
2023-05-09T03:43:14.735Z,12.70
2023-05-09T03:45:42.299Z,12.40
2023-05-09T03:48:11.584Z,12.90
2023-05-09T03:50:44.985Z,12.70
2023-05-09T03:53:14.157Z,12.90
2023-05-09T03:55:43.355Z,12.50
2023-05-09T03:58:13.089Z,12.50
2023-05-09T04:00:42.808Z,12.70
2023-05-09T04:03:16.812Z,12.90
2023-05-09T04:05:47.372Z,13.00
2023-05-09T04:08:25.078Z,12.60
2023-05-09T04:10:53.520Z,12.90
2023-05-09T04:13:21.286Z,12.70
2023-05-09T04:15:49.260Z,13.20
2023-05-09T04:18:17.087Z,12.80
2023-05-09T04:20:45.329Z,13.20
2023-05-09T04:23:13.289Z,13.10
2023-05-09T04:25:40.815Z,12.90
2023-05-09T04:28:08.418Z,13.10
2023-05-09T04:30:37.653Z,13.50
2023-05-09T04:33:05.659Z,13.50
2023-05-09T04:35:33.717Z,13.50
2023-05-09T04:38:01.301Z,13.10
2023-05-09T04:40:28.856Z,13.10
2023-05-09T04:42:59.784Z,13.40
2023-05-09T04:45:30.128Z,13.00
2023-05-09T04:47:59.287Z,13.60
2023-05-09T04:50:26.769Z,13.60
2023-05-09T04:52:54.250Z,13.10
2023-05-09T04:55:21.834Z,13.40
2023-05-09T04:57:51.077Z,13.10
2023-05-09T05:00:19.416Z,13.50
2023-05-09T05:02:48.703Z,13.20
2023-05-09T05:05:16.597Z,13.40
2023-05-09T05:07:44.783Z,13.10
2023-05-09T05:10:18.156Z,13.00
2023-05-09T05:12:49.715Z,13.00
2023-05-09T05:15:19.611Z,13.00
2023-05-09T05:17:48.771Z,13.40
2023-05-09T05:20:19.760Z,13.40
2023-05-09T05:22:47.562Z,13.20
2023-05-09T05:25:15.370Z,13.20
2023-05-09T05:27:45.053Z,13.40
2023-05-09T05:30:15.676Z,13.20
2023-05-09T05:32:44.094Z,13.40
2023-05-09T05:35:13.838Z,13.00
2023-05-09T05:37:42.365Z,13.20
2023-05-09T05:40:10.627Z,13.30
2023-05-09T05:42:41.262Z,13.40
2023-05-09T05:45:09.626Z,13.40
2023-05-09T05:47:40.116Z,13.40
2023-05-09T05:50:11.654Z,13.10
2023-05-09T05:52:40.022Z,13.30
2023-05-09T05:55:08.899Z,12.80
2023-05-09T05:57:39.129Z,12.90
2023-05-09T06:00:11.258Z,12.90
2023-05-09T06:02:45.498Z,13.00
2023-05-09T06:05:20.513Z,13.00
2023-05-09T06:07:48.126Z,13.40
2023-05-09T06:10:18.582Z,13.50
2023-05-09T06:12:46.542Z,13.00
2023-05-09T06:15:14.187Z,13.00
2023-05-09T06:17:45.835Z,13.50
2023-05-09T06:20:13.342Z,13.00
2023-05-09T06:22:40.947Z,13.60
2023-05-09T06:25:10.654Z,13.40
2023-05-09T06:27:38.835Z,13.60
2023-05-09T06:30:23.732Z,13.60
2023-05-09T06:32:52.956Z,13.20
2023-05-09T06:35:20.685Z,13.10
2023-05-09T06:37:49.045Z,13.20
2023-05-09T06:40:17.344Z,13.20
2023-05-09T06:42:45.343Z,13.20
2023-05-09T06:45:13.185Z,13.40
2023-05-09T06:47:41.029Z,13.50
2023-05-09T06:50:09.132Z,13.20
2023-05-09T06:52:36.744Z,13.50
2023-05-09T06:55:04.767Z,13.10
2023-05-09T06:57:32.604Z,13.20
2023-05-09T07:00:00.080Z,13.50
2023-05-09T07:02:27.600Z,13.60
2023-05-09T07:04:55.195Z,13.30
2023-05-09T07:07:22.835Z,13.70
2023-05-09T07:09:55.224Z,13.40
2023-05-09T07:12:28.345Z,13.90
2023-05-09T07:14:55.748Z,13.80
2023-05-09T07:17:24.667Z,13.50
2023-05-09T07:19:52.489Z,13.80
2023-05-09T07:22:20.143Z,13.50
2023-05-09T07:24:47.899Z,13.80
2023-05-09T07:27:15.531Z,13.80
2023-05-09T07:29:43.056Z,13.60
2023-05-09T07:32:11.133Z,13.70
2023-05-09T07:34:38.750Z,13.50
2023-05-09T07:37:06.357Z,13.30
2023-05-09T07:39:33.892Z,13.20
2023-05-09T07:42:01.455Z,13.10
2023-05-09T07:44:29.017Z,13.60
2023-05-09T07:46:59.209Z,13.40
2023-05-09T07:49:26.890Z,13.40
2023-05-09T07:51:54.276Z,13.90
2023-05-09T07:54:21.813Z,13.90
2023-05-09T07:56:49.362Z,13.50
2023-05-09T07:59:17.376Z,14.00
2023-05-09T08:01:44.998Z,13.90
2023-05-09T08:04:12.792Z,13.90
2023-05-09T08:06:40.419Z,14.30
2023-05-09T08:09:07.984Z,14.10
2023-05-09T08:11:36.135Z,13.90
2023-05-09T08:14:03.815Z,14.00
2023-05-09T08:16:31.315Z,14.00
2023-05-09T08:18:58.827Z,13.90
2023-05-09T08:21:26.631Z,14.00
2023-05-09T08:23:54.181Z,14.10
2023-05-09T08:26:22.760Z,14.20
2023-05-09T08:28:50.183Z,14.20
2023-05-09T08:31:17.757Z,14.20
2023-05-09T08:33:45.334Z,14.20
2023-05-09T08:36:12.772Z,14.30
2023-05-09T08:38:40.785Z,14.40
2023-05-09T08:41:08.294Z,14.50
2023-05-09T08:43:36.267Z,14.60
2023-05-09T08:46:10.394Z,14.60
2023-05-09T08:48:38.865Z,14.70
2023-05-09T08:51:07.535Z,14.50
2023-05-09T08:53:35.332Z,14.60
2023-05-09T08:56:06.323Z,14.70
2023-05-09T08:58:34.321Z,14.80
2023-05-09T09:01:06.828Z,14.90
2023-05-09T09:03:34.328Z,14.90
2023-05-09T09:06:02.008Z,15.10
2023-05-09T09:08:30.224Z,15.00
2023-05-09T09:10:58.196Z,15.10
2023-05-09T09:13:26.278Z,15.10
2023-05-09T09:15:54.543Z,15.10
2023-05-09T09:18:28.241Z,15.20
2023-05-09T09:21:05.127Z,15.50
2023-05-09T09:23:33.626Z,15.70
2023-05-09T09:26:06.866Z,15.80
2023-05-09T09:28:34.537Z,15.50
2023-05-09T09:31:02.386Z,15.60
2023-05-09T09:33:30.792Z,15.50
2023-05-09T09:35:59.501Z,15.80
2023-05-09T09:38:26.966Z,16.00
2023-05-09T09:40:58.309Z,16.30
2023-05-09T09:43:32.397Z,16.60
2023-05-09T09:46:03.845Z,17.00
2023-05-09T09:48:33.985Z,16.90
2023-05-09T09:51:09.018Z,17.10
2023-05-09T09:53:43.723Z,16.80
2023-05-09T09:56:11.767Z,16.70
2023-05-09T09:58:39.548Z,16.80
2023-05-09T10:01:08.282Z,16.50
2023-05-09T10:03:46.267Z,16.50
2023-05-09T10:06:16.218Z,16.50
2023-05-09T10:08:47.256Z,16.50
2023-05-09T10:11:15.986Z,16.30
2023-05-09T10:13:44.623Z,16.30
2023-05-09T10:16:13.897Z,16.20
2023-05-09T10:18:43.372Z,15.90
2023-05-09T10:21:15.418Z,15.90
2023-05-09T10:23:47.392Z,16.00
2023-05-09T10:26:28.932Z,16.10
2023-05-09T10:28:58.068Z,16.20
2023-05-09T10:31:27.456Z,16.20
2023-05-09T10:33:58.851Z,16.80
2023-05-09T10:36:26.679Z,16.80
2023-05-09T10:38:55.542Z,16.70
2023-05-09T10:41:24.023Z,16.60
2023-05-09T10:43:52.220Z,16.30
2023-05-09T10:46:20.491Z,16.40
2023-05-09T10:48:48.958Z,16.50
2023-05-09T10:51:17.577Z,16.20
2023-05-09T10:53:46.824Z,16.30
2023-05-09T10:56:27.543Z,16.10
2023-05-09T10:58:55.412Z,16.10
2023-05-09T11:01:31.661Z,16.10
2023-05-09T11:04:00.233Z,16.50
2023-05-09T11:06:49.580Z,17.00
2023-05-09T11:09:35.440Z,17.70
2023-05-09T11:12:05.978Z,18.10
2023-05-09T11:14:45.150Z,18.70
2023-05-09T11:17:22.004Z,18.90
2023-05-09T11:19:49.616Z,18.60
2023-05-09T11:22:20.979Z,18.40
2023-05-09T11:24:50.336Z,18.20
2023-05-09T11:27:25.593Z,18.10
2023-05-09T11:29:58.218Z,17.50
2023-05-09T11:32:33.244Z,17.10
2023-05-09T11:35:15.614Z,16.90
2023-05-09T11:38:02.659Z,16.70
2023-05-09T11:40:31.117Z,16.50
2023-05-09T11:43:00.671Z,16.30
2023-05-09T11:45:32.864Z,16.10
2023-05-09T11:48:04.220Z,16.10
2023-05-09T11:50:31.950Z,16.00
2023-05-09T11:52:59.463Z,15.70
2023-05-09T11:55:30.132Z,15.50
2023-05-09T11:57:59.093Z,15.40
2023-05-09T12:00:26.826Z,15.20
2023-05-09T12:02:54.629Z,15.00
2023-05-09T12:05:23.333Z,14.90
2023-05-09T12:07:52.333Z,14.70
2023-05-09T12:10:21.995Z,14.50
2023-05-09T12:12:51.511Z,14.30
2023-05-09T12:15:21.539Z,14.20
2023-05-09T12:18:03.108Z,14.20
2023-05-09T12:20:53.200Z,14.20
2023-05-09T12:23:20.714Z,14.30
2023-05-09T12:25:56.019Z,14.20
2023-05-09T12:28:24.781Z,13.80
2023-05-09T12:30:53.840Z,13.80
2023-05-09T12:33:22.371Z,13.90
2023-05-09T12:36:13.217Z,13.80
2023-05-09T12:38:40.954Z,13.90
2023-05-09T12:41:29.878Z,13.50
2023-05-09T12:43:58.506Z,13.40
2023-05-09T12:46:26.090Z,13.70
2023-05-09T12:48:55.174Z,13.80
2023-05-09T12:51:23.421Z,13.70
2023-05-09T12:53:51.154Z,14.00
2023-05-09T12:56:20.531Z,14.00
2023-05-09T12:58:53.028Z,14.00
2023-05-09T13:01:23.533Z,14.00
2023-05-09T13:03:52.724Z,13.80
2023-05-09T13:06:21.185Z,14.10
2023-05-09T13:09:06.025Z,14.20
2023-05-09T13:11:33.636Z,14.00
2023-05-09T13:14:03.328Z,13.90
2023-05-09T13:16:31.097Z,13.90
2023-05-09T13:18:58.560Z,14.30
2023-05-09T13:21:26.075Z,14.30
2023-05-09T13:23:54.520Z,14.30
2023-05-09T13:26:22.469Z,14.10
2023-05-09T13:28:50.094Z,14.40
2023-05-09T13:31:18.775Z,14.20
2023-05-09T13:33:46.310Z,14.20
2023-05-09T13:36:13.924Z,14.40
2023-05-09T13:38:42.147Z,14.40
2023-05-09T13:41:10.396Z,14.40
2023-05-09T13:43:39.222Z,14.30
2023-05-09T13:46:06.824Z,14.00
2023-05-09T13:48:34.336Z,14.30
2023-05-09T13:51:01.887Z,14.10
2023-05-09T13:53:29.429Z,14.20
2023-05-09T13:55:57.145Z,14.30
2023-05-09T13:58:24.807Z,14.80
2023-05-09T14:00:52.227Z,14.70
2023-05-09T14:03:19.754Z,14.60
2023-05-09T14:05:48.175Z,14.70
2023-05-09T14:08:15.632Z,14.80
2023-05-09T14:10:43.097Z,14.50
2023-05-09T14:13:12.592Z,14.30
2023-05-09T14:15:40.562Z,14.10
2023-05-09T14:18:08.339Z,14.20
2023-05-09T14:20:37.684Z,13.90
2023-05-09T14:23:05.178Z,14.00
2023-05-09T14:25:32.743Z,14.00
2023-05-09T14:28:00.331Z,13.70
2023-05-09T14:30:28.264Z,13.40
2023-05-09T14:32:55.752Z,13.70
2023-05-09T14:35:23.877Z,13.90
2023-05-09T14:37:51.565Z,14.00
2023-05-09T14:40:21.291Z,13.80
2023-05-09T14:42:49.203Z,13.80
2023-05-09T14:45:17.024Z,14.00
2023-05-09T14:47:44.682Z,14.20
2023-05-09T14:50:15.867Z,14.30
2023-05-09T14:52:44.456Z,14.60
2023-05-09T14:55:12.126Z,14.40
2023-05-09T14:57:39.898Z,14.40
2023-05-09T15:00:19.382Z,13.90
2023-05-09T15:02:48.793Z,14.10
2023-05-09T15:05:16.891Z,13.90
2023-05-09T15:07:44.494Z,13.90
2023-05-09T15:10:12.283Z,13.50
2023-05-09T15:12:39.940Z,13.70
2023-05-09T15:15:18.326Z,13.30
2023-05-09T15:17:46.304Z,13.50
2023-05-09T15:20:20.522Z,13.50
2023-05-09T15:22:49.776Z,13.50
2023-05-09T15:25:17.815Z,13.20
2023-05-09T15:27:45.478Z,13.20
2023-05-09T15:30:13.708Z,13.30
2023-05-09T15:32:41.636Z,13.30
2023-05-09T15:35:09.407Z,13.30
2023-05-09T15:37:37.333Z,13.10
2023-05-09T15:40:05.380Z,13.30
2023-05-09T15:42:32.855Z,12.90
2023-05-09T15:45:00.596Z,13.20
2023-05-09T15:47:28.192Z,13.00
2023-05-09T15:49:55.735Z,13.20
2023-05-09T15:52:23.157Z,13.20
2023-05-09T15:54:50.862Z,13.10
2023-05-09T15:57:18.386Z,13.20
2023-05-09T15:59:45.927Z,13.30
2023-05-09T16:02:13.399Z,13.60
2023-05-09T16:04:42.506Z,13.60
2023-05-09T16:07:10.143Z,13.40
2023-05-09T16:09:38.490Z,13.40
2023-05-09T16:12:07.433Z,13.30
2023-05-09T16:14:35.050Z,13.30
2023-05-09T16:17:05.385Z,13.40
2023-05-09T16:19:35.656Z,13.40
2023-05-09T16:22:03.775Z,13.30
2023-05-09T16:24:31.905Z,13.50
2023-05-09T16:26:59.517Z,13.30
2023-05-09T16:29:28.572Z,13.40
2023-05-09T16:31:56.173Z,13.30
2023-05-09T16:34:23.721Z,13.30
2023-05-09T16:36:52.331Z,13.20
2023-05-09T16:39:19.862Z,13.20
2023-05-09T16:41:47.478Z,13.10
2023-05-09T16:44:15.456Z,13.00
2023-05-09T16:46:43.054Z,13.10
2023-05-09T16:49:11.212Z,13.00
2023-05-09T16:51:38.943Z,13.00
2023-05-09T16:54:06.733Z,12.70
2023-05-09T16:56:34.931Z,12.90
2023-05-09T16:59:02.689Z,12.70
2023-05-09T17:01:30.449Z,12.70
2023-05-09T17:03:57.989Z,12.70
2023-05-09T17:06:26.266Z,12.60
2023-05-09T17:08:54.186Z,12.80
2023-05-09T17:11:22.716Z,12.60
2023-05-09T17:13:50.208Z,12.70
2023-05-09T17:16:17.716Z,12.80
2023-05-09T17:18:48.138Z,12.40
2023-05-09T17:21:16.696Z,12.70
2023-05-09T17:23:44.204Z,12.40
2023-05-09T17:26:12.033Z,12.60
2023-05-09T17:28:39.594Z,12.40
2023-05-09T17:31:07.575Z,12.70
2023-05-09T17:33:35.150Z,12.50
2023-05-09T17:36:02.679Z,12.30
2023-05-09T17:38:30.217Z,12.50
2023-05-09T17:40:58.379Z,12.20
2023-05-09T17:43:27.853Z,12.50
2023-05-09T17:45:55.435Z,12.30
2023-05-09T17:48:22.937Z,12.30
2023-05-09T17:50:50.762Z,12.30
2023-05-09T17:53:18.403Z,12.70
2023-05-09T17:55:45.874Z,12.30
2023-05-09T17:58:14.893Z,12.70
2023-05-09T18:00:42.348Z,12.50
2023-05-09T18:03:09.919Z,12.70
2023-05-09T18:05:38.100Z,12.40
2023-05-09T18:08:05.708Z,12.40
2023-05-09T18:10:33.287Z,12.30
2023-05-09T18:13:00.913Z,12.70
2023-05-09T18:15:28.448Z,12.30
2023-05-09T18:17:57.709Z,12.30
2023-05-09T18:20:25.469Z,12.40
2023-05-09T18:22:54.292Z,12.30
2023-05-09T18:25:21.916Z,12.30
2023-05-09T18:27:49.445Z,12.20
2023-05-09T18:30:18.203Z,12.20
2023-05-09T18:32:45.740Z,12.20
2023-05-09T18:35:13.569Z,12.10
2023-05-09T18:37:41.907Z,12.30
2023-05-09T18:40:14.962Z,12.10
2023-05-09T18:42:42.908Z,12.10
2023-05-09T18:45:10.866Z,12.10
2023-05-09T18:47:38.932Z,12.10
2023-05-09T18:50:08.011Z,11.90
2023-05-09T18:52:35.644Z,12.00
2023-05-09T18:55:03.225Z,12.40
2023-05-09T18:57:30.758Z,12.10
2023-05-09T18:59:58.897Z,12.40
2023-05-09T19:02:26.681Z,12.40
2023-05-09T19:04:54.143Z,12.30
2023-05-09T19:07:22.730Z,12.20
2023-05-09T19:09:50.204Z,12.20
2023-05-09T19:12:17.768Z,12.30
2023-05-09T19:14:45.247Z,12.20
2023-05-09T19:17:12.826Z,12.40
2023-05-09T19:19:40.293Z,12.20
2023-05-09T19:22:07.787Z,12.20
2023-05-09T19:24:35.232Z,12.50
2023-05-09T19:27:02.850Z,12.10
2023-05-09T19:29:30.413Z,12.20
2023-05-09T19:31:58.319Z,12.10
2023-05-09T19:34:25.957Z,12.20
2023-05-09T19:36:53.506Z,12.20
2023-05-09T19:39:21.110Z,12.10
2023-05-09T19:41:48.575Z,12.10
2023-05-09T19:44:16.131Z,11.90
2023-05-09T19:46:43.865Z,11.90
2023-05-09T19:49:12.138Z,12.10
2023-05-09T19:51:39.603Z,11.70
2023-05-09T19:54:07.293Z,11.80
2023-05-09T19:56:34.816Z,12.20
2023-05-09T19:59:02.261Z,12.20
2023-05-09T20:01:29.789Z,12.20
2023-05-09T20:03:57.385Z,11.80
2023-05-09T20:06:25.873Z,12.10
2023-05-09T20:08:53.341Z,12.20
2023-05-09T20:11:21.728Z,12.00
2023-05-09T20:13:49.250Z,12.20
2023-05-09T20:16:16.929Z,11.90
2023-05-09T20:18:44.571Z,12.20
2023-05-09T20:21:12.171Z,11.90
2023-05-09T20:23:40.011Z,12.10
2023-05-09T20:26:07.591Z,11.80
2023-05-09T20:28:35.148Z,12.00
2023-05-09T20:31:03.426Z,11.80
2023-05-09T20:33:30.862Z,11.90
2023-05-09T20:35:58.354Z,12.00
2023-05-09T20:38:25.864Z,11.90
2023-05-09T20:40:53.326Z,11.80
2023-05-09T20:43:20.854Z,11.40
2023-05-09T20:47:26.420Z,11.80
2023-05-09T20:49:55.149Z,11.60
2023-05-09T20:52:23.735Z,11.60
2023-05-09T20:54:51.263Z,11.60
2023-05-09T20:57:18.878Z,11.90
2023-05-09T20:59:46.328Z,11.60
2023-05-09T21:02:13.881Z,11.90
2023-05-09T21:04:41.519Z,11.60
2023-05-09T21:07:10.018Z,11.80
2023-05-09T21:09:37.726Z,11.60
2023-05-09T21:12:05.422Z,11.50
2023-05-09T21:14:32.992Z,11.50
2023-05-09T21:17:00.550Z,11.40
2023-05-09T21:19:28.576Z,11.50
2023-05-09T21:21:56.000Z,11.60
2023-05-09T21:24:23.577Z,11.50
2023-05-09T21:26:51.381Z,11.90
2023-05-09T21:29:18.873Z,11.50
2023-05-09T21:31:46.345Z,11.50
2023-05-09T21:36:58.297Z,11.50
2023-05-09T21:39:25.818Z,11.80
2023-05-09T21:41:53.318Z,11.60
2023-05-09T21:44:20.857Z,11.60
2023-05-09T21:46:48.508Z,11.60
2023-05-09T21:49:20.981Z,11.40
2023-05-09T21:51:49.306Z,11.70
2023-05-09T21:54:16.898Z,11.70
2023-05-09T21:56:44.398Z,11.40
2023-05-09T21:59:11.864Z,11.70
2023-05-09T22:01:39.423Z,11.80
2023-05-09T22:04:07.408Z,11.40
2023-05-09T22:06:34.895Z,11.40
2023-05-09T22:09:02.328Z,11.70
2023-05-09T22:11:29.999Z,11.40
2023-05-09T22:13:57.417Z,11.80
2023-05-09T22:16:24.979Z,11.70
2023-05-09T22:18:52.778Z,11.70
2023-05-09T22:21:20.277Z,11.50
2023-05-09T22:23:47.756Z,11.50
2023-05-09T22:26:15.270Z,11.70
2023-05-09T22:28:42.998Z,11.60
2023-05-09T22:31:10.729Z,11.50
2023-05-09T22:33:38.175Z,11.60
2023-05-09T22:36:05.966Z,11.40
2023-05-09T22:38:33.566Z,11.50
2023-05-09T22:41:01.149Z,11.40
2023-05-09T22:43:36.510Z,11.60
2023-05-09T22:46:06.628Z,11.40
2023-05-09T22:48:34.276Z,11.00
2023-05-09T22:51:02.194Z,11.10
2023-05-09T22:53:29.808Z,11.10
2023-05-09T22:55:57.899Z,11.00
2023-05-09T22:58:26.493Z,11.00
2023-05-09T23:00:54.048Z,10.90
2023-05-09T23:03:21.826Z,10.90
2023-05-09T23:05:49.445Z,11.00
2023-05-09T23:08:17.083Z,10.90
2023-05-09T23:10:44.561Z,11.20
2023-05-09T23:13:12.437Z,11.10
2023-05-09T23:15:39.946Z,10.90
2023-05-09T23:18:07.484Z,10.90
2023-05-09T23:20:36.230Z,11.30
2023-05-09T23:23:03.809Z,11.30
2023-05-09T23:25:31.582Z,10.90
2023-05-09T23:27:59.033Z,11.20
2023-05-09T23:30:26.509Z,11.20
2023-05-09T23:32:54.075Z,11.20
2023-05-09T23:35:22.335Z,11.50
2023-05-09T23:37:49.797Z,11.50
2023-05-09T23:40:17.587Z,11.50
2023-05-09T23:42:45.661Z,11.30
2023-05-09T23:45:13.363Z,11.30
2023-05-09T23:47:40.793Z,11.30
2023-05-09T23:50:08.766Z,11.40
2023-05-09T23:52:36.272Z,11.50
2023-05-09T23:55:04.034Z,11.30
2023-05-09T23:57:31.728Z,11.20
2023-05-09T23:59:59.675Z,11.00
